createdAt,value
2018-01-15T00:00:30.293Z,100277.65
2018-01-15T00:03:32.437Z,100281.88
2018-01-15T00:06:33.785Z,100283.20
2018-01-15T00:09:35.157Z,100275.23
2018-01-15T00:12:36.561Z,100261.13
2018-01-15T00:15:37.897Z,100259.42
2018-01-15T00:18:39.276Z,100249.02
2018-01-15T00:21:40.646Z,100242.66
2018-01-15T00:24:42.035Z,100233.70
2018-01-15T00:27:43.394Z,100235.77
2018-01-15T00:30:44.741Z,100213.59
2018-01-15T00:33:46.106Z,100215.34
2018-01-15T00:36:47.471Z,100226.73
2018-01-15T00:39:49.555Z,100213.63
2018-01-15T00:42:50.922Z,100214.23
2018-01-15T00:45:52.341Z,100205.91
2018-01-15T00:48:53.697Z,100196.86
2018-01-15T00:51:55.026Z,100183.08
2018-01-15T00:54:56.369Z,100200.66
2018-01-15T00:57:57.714Z,100188.00
2018-01-15T01:00:59.074Z,100203.91
2018-01-15T01:04:00.471Z,100198.11
2018-01-15T01:07:01.851Z,100210.27
2018-01-15T01:10:03.978Z,100198.12
2018-01-15T01:13:06.117Z,100201.73
2018-01-15T01:16:07.474Z,100198.23
2018-01-15T01:19:08.811Z,100200.41
2018-01-15T01:22:10.179Z,100194.69
2018-01-15T01:25:11.535Z,100192.36
2018-01-15T01:28:12.917Z,100180.14
2018-01-15T01:31:14.303Z,100191.17
2018-01-15T01:34:16.392Z,100176.69
2018-01-15T01:37:17.756Z,100175.08
2018-01-15T01:40:19.120Z,100170.06
2018-01-15T01:43:20.488Z,100168.77
2018-01-15T01:46:21.816Z,100154.94
2018-01-15T01:49:23.221Z,100137.75
2018-01-15T01:52:25.326Z,100141.30
2018-01-15T01:55:26.736Z,100155.22
2018-01-15T01:58:28.871Z,100150.53
2018-01-15T02:01:30.269Z,100152.73
2018-01-15T02:04:31.639Z,100134.30
2018-01-15T02:07:32.979Z,100119.27
2018-01-15T02:10:34.381Z,100124.02
2018-01-15T02:13:35.730Z,100125.17
2018-01-15T02:16:37.119Z,100122.45
2018-01-15T02:19:38.501Z,100116.39
2018-01-15T02:22:39.867Z,100119.16
2018-01-15T02:25:41.279Z,100102.94
2018-01-15T02:28:42.631Z,100109.48
2018-01-15T02:31:44.036Z,100092.81
2018-01-15T02:34:45.395Z,100099.86
2018-01-15T02:37:46.877Z,100101.16
2018-01-15T02:40:48.278Z,100098.59
2018-01-15T02:43:49.606Z,100095.33
2018-01-15T02:46:50.997Z,100085.36
2018-01-15T02:49:52.339Z,100081.75
2018-01-15T02:52:53.729Z,100066.19
2018-01-15T02:55:55.053Z,100068.77
2018-01-15T02:58:57.156Z,100065.14
2018-01-15T03:01:58.568Z,100060.98
2018-01-15T03:04:59.903Z,100056.17
2018-01-15T03:08:01.327Z,100040.48
2018-01-15T03:11:02.835Z,100040.09
2018-01-15T03:14:04.920Z,100034.83
2018-01-15T03:17:06.297Z,100034.80
2018-01-15T03:20:07.949Z,100030.02
2018-01-15T03:23:09.353Z,100024.34
2018-01-15T03:26:10.686Z,100026.95
2018-01-15T03:29:12.022Z,99986.31
2018-01-15T03:32:14.111Z,99993.30
2018-01-15T03:35:15.482Z,99992.00
2018-01-15T03:38:17.574Z,99971.05
2018-01-15T03:41:18.958Z,99989.38
2018-01-15T03:44:20.363Z,99964.44
2018-01-15T03:47:22.469Z,99974.88
2018-01-15T03:50:24.046Z,99976.70
2018-01-15T03:53:25.393Z,99982.84
2018-01-15T03:56:26.744Z,99970.14
2018-01-15T03:59:29.585Z,99959.66
2018-01-15T04:02:37.853Z,99954.46
2018-01-15T04:05:39.198Z,99956.64
2018-01-15T04:08:40.558Z,99936.07
2018-01-15T04:11:41.969Z,99936.94
2018-01-15T04:14:43.303Z,99918.61
2018-01-15T04:17:44.676Z,99918.17
2018-01-15T04:20:46.023Z,99916.47
2018-01-15T04:23:47.371Z,99922.06
2018-01-15T04:26:48.698Z,99906.86
2018-01-15T04:29:50.062Z,99906.88
2018-01-15T04:32:51.439Z,99899.00
2018-01-15T04:35:52.814Z,99898.55
2018-01-15T04:38:54.153Z,99898.85
2018-01-15T04:41:55.474Z,99899.80
2018-01-15T04:44:56.793Z,99891.94
2018-01-15T04:47:58.307Z,99894.87
2018-01-15T04:50:59.706Z,99891.03
2018-01-15T04:54:01.054Z,99885.80
2018-01-15T04:57:02.389Z,99872.22
2018-01-15T05:00:04.506Z,99875.20
2018-01-15T05:03:05.811Z,99855.75
2018-01-15T05:06:08.008Z,99874.97
2018-01-15T05:09:09.370Z,99854.27
2018-01-15T05:12:10.689Z,99854.24
2018-01-15T05:15:12.041Z,99852.98
2018-01-15T05:18:13.355Z,99847.78
2018-01-15T05:21:14.740Z,99843.80
2018-01-15T05:24:16.057Z,99837.61
2018-01-15T05:27:18.147Z,99825.34
2018-01-15T05:30:20.226Z,99821.40
2018-01-15T05:33:21.523Z,99832.41
2018-01-15T05:36:22.902Z,99820.09
2018-01-15T05:39:25.009Z,99821.40
2018-01-15T05:42:26.341Z,99820.20
2018-01-15T05:45:34.615Z,99817.87
2018-01-15T05:48:35.960Z,99813.56
2018-01-15T05:51:37.354Z,99810.09
2018-01-15T05:54:38.679Z,99803.66
2018-01-15T05:57:40.896Z,99800.44
2018-01-15T06:00:42.289Z,99785.67
2018-01-15T06:03:43.637Z,99792.54
2018-01-15T06:06:45.014Z,99775.12
2018-01-15T06:09:47.207Z,99778.65
2018-01-15T06:12:48.678Z,99775.55
2018-01-15T06:15:50.107Z,99781.20
2018-01-15T06:18:51.632Z,99754.27
2018-01-15T06:21:53.899Z,99760.22
2018-01-15T06:24:55.479Z,99762.54
2018-01-15T06:27:57.009Z,99755.73
2018-01-15T06:30:59.239Z,99761.06
2018-01-15T06:34:00.726Z,99761.12
2018-01-15T06:37:02.226Z,99755.88
2018-01-15T06:40:03.698Z,99746.48
2018-01-15T06:43:05.190Z,99742.84
2018-01-15T06:46:06.707Z,99739.23
2018-01-15T06:49:08.166Z,99738.95
2018-01-15T06:52:09.662Z,99733.55
2018-01-15T06:55:11.858Z,99704.53
2018-01-15T06:58:13.473Z,99708.06
2018-01-15T07:01:14.922Z,99702.55
2018-01-15T07:04:16.407Z,99696.27
2018-01-15T07:07:18.716Z,99688.05
2018-01-15T07:10:20.190Z,99684.94
2018-01-15T07:13:21.725Z,99683.88
2018-01-15T07:16:23.038Z,99676.32
2018-01-15T07:19:24.475Z,99678.77
2018-01-15T07:22:26.588Z,99670.75
2018-01-15T07:25:27.865Z,99673.82
2018-01-15T07:28:29.203Z,99671.87
2018-01-15T07:31:30.446Z,99677.45
2018-01-15T07:34:31.753Z,99671.63
2018-01-15T07:37:33.790Z,99679.66
2018-01-15T07:40:35.056Z,99662.01
2018-01-15T07:43:37.031Z,99659.05
2018-01-15T07:46:39.045Z,99642.04
2018-01-15T07:49:40.340Z,99638.78
2018-01-15T07:52:42.336Z,99635.53
2018-01-15T07:55:43.627Z,99636.35
2018-01-15T07:58:44.891Z,99635.31
2018-01-15T08:01:46.919Z,99629.52
2018-01-15T08:04:48.201Z,99636.88
2018-01-15T08:07:49.831Z,99621.97
2018-01-15T08:10:51.150Z,99618.14
2018-01-15T08:13:52.450Z,99624.98
2018-01-15T08:16:53.729Z,99627.00
2018-01-15T08:19:55.035Z,99607.59
2018-01-15T08:22:56.314Z,99594.25
2018-01-15T08:25:59.041Z,99594.80
2018-01-15T08:29:00.288Z,99591.73
2018-01-15T08:32:03.629Z,99580.38
2018-01-15T08:35:04.906Z,99586.38
2018-01-15T08:38:06.178Z,99581.39
2018-01-15T08:41:07.452Z,99582.35
2018-01-15T08:44:08.713Z,99586.48
2018-01-15T08:47:10.199Z,99597.16
2018-01-15T08:50:12.186Z,99575.22
2018-01-15T08:53:13.454Z,99572.22
2018-01-15T08:56:14.774Z,99563.73
2018-01-15T08:59:17.110Z,99572.27
2018-01-15T09:02:19.165Z,99564.23
2018-01-15T09:05:20.504Z,99553.67
2018-01-15T09:08:21.805Z,99559.61
2018-01-15T09:11:24.426Z,99538.16
2018-01-15T09:14:25.774Z,99541.84
2018-01-15T09:17:27.070Z,99532.28
2018-01-15T09:20:29.159Z,99543.91
2018-01-15T09:23:30.388Z,99529.92
2018-01-15T09:26:32.404Z,99535.58
2018-01-15T09:29:33.760Z,99509.07
2018-01-15T09:32:35.804Z,99512.50
2018-01-15T09:35:37.054Z,99503.83
2018-01-15T09:38:38.340Z,99508.94
2018-01-15T09:41:39.594Z,99509.87
2018-01-15T09:44:40.846Z,99496.98
2018-01-15T09:47:42.147Z,99496.60
2018-01-15T09:50:43.428Z,99482.75
2018-01-15T09:53:45.444Z,99484.16
2018-01-15T09:56:48.218Z,99486.25
2018-01-15T09:59:50.582Z,99475.31
2018-01-15T10:02:52.659Z,99469.25
2018-01-15T10:05:56.183Z,99465.48
2018-01-15T10:08:57.482Z,99463.39
2018-01-15T10:11:59.803Z,99467.09
2018-01-15T10:15:01.110Z,99458.17
2018-01-15T10:18:03.901Z,99460.00
2018-01-15T10:21:05.869Z,99438.32
2018-01-15T10:24:08.299Z,99454.92
2018-01-15T10:27:09.603Z,99436.13
2018-01-15T10:30:12.014Z,99435.52
2018-01-15T10:33:13.258Z,99403.98
2018-01-15T10:36:16.301Z,99410.97
2018-01-15T10:39:18.326Z,99403.91
2018-01-15T10:42:19.630Z,99407.97
2018-01-15T10:45:21.657Z,99399.54
2018-01-15T10:48:22.920Z,99384.91
2018-01-15T10:51:24.189Z,99376.84
2018-01-15T10:54:26.158Z,99377.59
2018-01-15T10:57:28.218Z,99369.66
2018-01-15T11:00:36.524Z,99352.95
2018-01-15T11:03:38.538Z,99344.36
2018-01-15T11:06:40.574Z,99334.50
2018-01-15T11:09:41.838Z,99318.64
2018-01-15T11:12:43.103Z,99307.11
2018-01-15T11:15:44.359Z,99281.69
2018-01-15T11:18:45.663Z,99286.41
2018-01-15T11:21:47.724Z,99303.07
2018-01-15T11:24:49.717Z,99267.47
2018-01-15T11:27:51.394Z,99281.50
2018-01-15T11:30:52.659Z,99261.49
2018-01-15T11:33:53.928Z,99250.83
2018-01-15T11:36:55.264Z,99246.07
2018-01-15T11:39:56.547Z,99213.27
2018-01-15T11:42:58.542Z,99205.18
2018-01-15T11:45:59.827Z,99200.78
2018-01-15T11:49:01.097Z,99203.05
2018-01-15T11:52:03.083Z,99201.61
2018-01-15T11:55:04.478Z,99185.67
2018-01-15T11:58:05.746Z,99167.23
2018-01-15T12:01:07.417Z,99162.91
2018-01-15T12:04:09.118Z,99148.86
2018-01-15T12:07:10.608Z,99150.55
2018-01-15T12:10:12.422Z,99143.18
2018-01-15T12:13:13.743Z,99144.81
2018-01-15T12:16:15.793Z,99126.31
2018-01-15T12:19:18.335Z,99128.55
2018-01-15T12:22:19.646Z,99110.20
2018-01-15T12:25:21.731Z,99092.61
2018-01-15T12:28:23.133Z,99070.32
2018-01-15T12:31:24.460Z,99068.88
2018-01-15T12:34:25.737Z,99054.69
2018-01-15T12:37:27.055Z,99040.87
2018-01-15T12:40:28.440Z,99023.47
2018-01-15T12:43:29.774Z,99032.47
2018-01-15T12:46:31.090Z,99018.17
2018-01-15T12:49:32.462Z,98985.00
2018-01-15T12:52:33.823Z,98991.44
2018-01-15T12:55:35.150Z,98978.09
2018-01-15T12:58:36.515Z,98965.08
2018-01-15T13:01:37.886Z,98946.06
2018-01-15T13:04:39.270Z,98932.66
2018-01-15T13:11:27.210Z,98918.01
2018-01-15T13:14:28.514Z,98913.77
2018-01-15T13:17:29.791Z,98914.22
2018-01-15T13:20:31.095Z,98883.53
2018-01-15T13:23:32.355Z,98888.34
2018-01-15T13:26:33.638Z,98867.03
2018-01-15T13:29:34.969Z,98890.94
2018-01-15T13:32:36.271Z,98857.31
2018-01-15T13:35:38.329Z,98852.79
2018-01-15T13:38:40.348Z,98836.02
2018-01-15T13:41:41.630Z,98825.20
2018-01-15T13:44:42.932Z,98819.02
2018-01-15T13:47:44.237Z,98809.98
2018-01-15T13:50:46.285Z,98810.20
2018-01-15T13:53:47.526Z,98804.77
2018-01-15T13:56:48.832Z,98804.09
2018-01-15T13:59:50.165Z,98791.69
2018-01-15T14:02:51.500Z,98793.17
2018-01-15T14:05:53.536Z,98791.45
2018-01-15T14:08:54.868Z,98787.50
2018-01-15T14:11:56.173Z,98784.13
2018-01-15T14:14:58.200Z,98774.23
2018-01-15T14:18:07.350Z,98781.27
2018-01-15T14:21:08.618Z,98778.73
2018-01-15T14:24:10.721Z,98756.03
2018-01-15T14:27:11.998Z,98731.80
2018-01-15T14:30:13.293Z,98734.45
2018-01-15T14:33:15.336Z,98710.63
2018-01-15T14:36:16.622Z,98658.69
2018-01-15T14:39:17.919Z,98693.33
2018-01-15T14:42:19.197Z,98688.00
2018-01-15T14:45:21.216Z,98688.88
2018-01-15T14:48:22.462Z,98671.86
2018-01-15T14:51:23.806Z,98657.73
2018-01-15T14:54:25.064Z,98644.70
2018-01-15T14:57:26.361Z,98640.26
2018-01-15T15:00:27.639Z,98622.80
2018-01-15T15:03:28.945Z,98620.73
2018-01-15T15:06:31.003Z,98605.20
2018-01-15T15:09:32.273Z,98598.69
2018-01-15T15:12:34.291Z,98590.05
2018-01-15T15:15:35.570Z,98577.95
2018-01-15T15:18:36.864Z,98577.85
2018-01-15T15:21:45.220Z,98569.48
2018-01-15T15:24:46.549Z,98569.42
2018-01-15T15:27:47.852Z,98552.17
2018-01-15T15:30:49.182Z,98550.93
2018-01-15T15:33:50.443Z,98520.39
2018-01-15T15:36:52.456Z,98503.36
2018-01-15T15:39:53.745Z,98466.95
2018-01-15T15:42:56.104Z,98461.73
2018-01-15T15:45:58.206Z,98444.15
2018-01-15T15:49:00.228Z,98450.25
2018-01-15T15:52:02.213Z,98404.20
2018-01-15T15:55:03.521Z,98411.27
2018-01-15T15:58:04.785Z,98421.16
2018-01-15T16:01:06.124Z,98401.09
2018-01-15T16:04:07.393Z,98400.08
2018-01-15T16:07:09.069Z,98376.32
2018-01-15T16:10:10.372Z,98376.45
2018-01-15T16:13:12.181Z,98358.61
2018-01-15T16:16:13.565Z,98356.20
2018-01-15T16:19:17.097Z,98354.17
2018-01-15T16:22:33.505Z,98329.81
2018-01-15T16:25:34.697Z,98320.32
2018-01-15T16:28:36.840Z,98316.51
2018-01-15T16:31:38.178Z,98299.09
2018-01-15T16:34:39.500Z,98283.36
2018-01-15T16:37:40.827Z,98284.41
2018-01-15T16:40:42.063Z,98266.66
2018-01-15T16:43:44.144Z,98256.82
2018-01-15T16:46:45.425Z,98257.27
2018-01-15T16:49:46.753Z,98238.36
2018-01-15T16:52:47.983Z,98225.30
2018-01-15T16:55:49.392Z,98213.39
2018-01-15T16:58:50.761Z,98209.67
2018-01-15T17:01:52.035Z,98199.20
2018-01-15T17:04:53.389Z,98198.86
2018-01-15T17:07:54.665Z,98205.14
2018-01-15T17:10:56.735Z,98215.38
2018-01-15T17:13:57.988Z,98202.23
2018-01-15T17:16:59.226Z,98194.30
2018-01-15T17:20:00.505Z,98182.22
2018-01-15T17:23:01.795Z,98161.11
2018-01-15T17:26:03.148Z,98165.17
2018-01-15T17:29:04.424Z,98156.70
2018-01-15T17:32:05.746Z,98152.25
2018-01-15T17:35:07.044Z,98148.83
2018-01-15T17:38:09.342Z,98115.44
2018-01-15T17:41:11.346Z,98112.97
2018-01-15T17:44:12.637Z,98100.69
2018-01-15T17:47:13.927Z,98109.23
2018-01-15T17:50:15.205Z,98107.59
2018-01-15T17:53:16.501Z,98085.50
2018-01-15T17:56:17.885Z,98079.34
2018-01-15T17:59:19.234Z,98074.70
2018-01-15T18:02:20.691Z,98060.89
2018-01-15T18:05:21.946Z,98050.84
2018-01-15T18:08:23.262Z,98033.53
2018-01-15T18:11:25.257Z,98046.77
2018-01-15T18:14:26.724Z,98049.33
2018-01-15T18:17:27.976Z,98031.85
2018-01-15T18:20:29.303Z,98044.11
2018-01-15T18:23:30.596Z,98012.37
2018-01-15T18:26:31.848Z,98010.20
2018-01-15T18:29:33.131Z,98005.28
2018-01-15T18:32:35.102Z,97980.19
2018-01-15T18:35:36.432Z,97974.92
2018-01-15T18:38:37.609Z,97966.22
2018-01-15T18:41:38.932Z,97964.48
2018-01-15T18:44:40.953Z,97952.80
2018-01-15T18:47:42.233Z,97974.47
2018-01-15T18:50:43.681Z,97959.41
2018-01-15T18:53:45.132Z,97943.50
2018-01-15T18:56:50.483Z,97923.10
2018-01-15T18:59:51.885Z,97924.31
2018-01-15T19:02:53.224Z,97913.67
2018-01-15T19:05:54.536Z,97903.67
2018-01-15T19:08:56.626Z,97865.59
2018-01-15T19:11:58.849Z,97888.48
2018-01-15T19:15:01.509Z,97879.70
2018-01-15T19:18:05.303Z,97850.24
2018-01-15T19:21:06.680Z,97840.35
2018-01-15T19:24:08.302Z,97854.19
2018-01-15T19:27:10.929Z,97858.97
2018-01-15T19:30:15.676Z,97885.64
2018-01-15T19:33:17.831Z,97845.06
2018-01-15T19:40:04.938Z,97824.13
2018-01-15T19:43:13.609Z,97846.20
2018-01-15T19:46:22.095Z,97859.55
2018-01-15T19:49:29.671Z,97802.16
2018-01-15T19:56:15.570Z,97809.89
2018-01-15T19:59:23.774Z,97783.83
2018-01-15T20:02:31.952Z,97828.60
2018-01-15T20:05:40.785Z,97793.13
2018-01-15T20:08:49.332Z,97800.89
2018-01-15T20:11:50.705Z,97777.97
2018-01-15T20:14:53.705Z,97791.83
2018-01-15T20:17:56.471Z,97790.53
2018-01-15T20:20:57.927Z,97798.60
2018-01-15T20:23:59.246Z,97797.81
2018-01-15T20:27:00.659Z,97783.16
2018-01-15T20:30:02.584Z,97799.16
2018-01-15T20:33:04.356Z,97799.81
2018-01-15T20:36:06.022Z,97787.75
2018-01-15T20:39:07.485Z,97760.73
2018-01-15T20:42:09.374Z,97783.89
2018-01-15T20:45:11.237Z,97763.93
2018-01-15T20:48:12.703Z,97769.32
2018-01-15T20:51:15.495Z,97732.34
2018-01-15T20:54:18.829Z,97733.66
2018-01-15T20:57:20.279Z,97749.28
2018-01-15T21:00:22.344Z,97756.77
2018-01-15T21:03:23.741Z,97748.27
2018-01-15T21:06:26.251Z,97767.00
2018-01-15T21:09:28.740Z,97758.67
2018-01-15T21:12:30.236Z,97729.60
2018-01-15T21:15:31.653Z,97752.81
2018-01-15T21:18:33.148Z,97764.77
2018-01-15T21:21:35.430Z,97758.70
2018-01-15T21:24:37.600Z,97767.80
2018-01-15T21:27:39.801Z,97763.57
2018-01-15T21:30:41.256Z,97776.31
2018-01-15T21:33:42.735Z,97779.25
2018-01-15T21:36:44.150Z,97750.67
2018-01-15T21:39:46.345Z,97742.79
2018-01-15T21:42:47.884Z,97748.09
2018-01-15T21:45:49.492Z,97752.05
2018-01-15T21:48:51.664Z,97739.12
2018-01-15T21:51:53.237Z,97752.53
2018-01-15T21:54:55.568Z,97739.91
2018-01-15T21:57:57.096Z,97742.49
2018-01-15T22:00:58.612Z,97735.77
2018-01-15T22:04:00.120Z,97726.64
2018-01-15T22:07:01.666Z,97743.30
2018-01-15T22:10:03.271Z,97746.91
2018-01-15T22:13:04.860Z,97744.55
2018-01-15T22:16:06.433Z,97745.59
2018-01-15T22:19:07.982Z,97762.84
2018-01-15T22:22:09.556Z,97747.63
2018-01-15T22:25:11.058Z,97747.11
2018-01-15T22:28:13.271Z,97740.17
2018-01-15T22:31:14.795Z,97751.30
2018-01-15T22:34:17.023Z,97758.36
2018-01-15T22:37:18.616Z,97754.86
2018-01-15T22:40:20.915Z,97747.09
2018-01-15T22:43:22.467Z,97746.01
2018-01-15T22:46:24.072Z,97754.78
2018-01-15T22:49:26.611Z,97747.56
2018-01-15T22:52:28.140Z,97750.78
2018-01-15T22:55:29.661Z,97733.31
2018-01-15T22:58:31.104Z,97739.05
2018-01-15T23:01:32.650Z,97732.92
2018-01-15T23:04:34.796Z,97726.13
2018-01-15T23:07:36.751Z,97732.34
2018-01-15T23:10:38.233Z,97735.39
2018-01-15T23:13:39.694Z,97728.97
2018-01-15T23:16:41.395Z,97732.70
2018-01-15T23:19:43.628Z,97722.80
2018-01-15T23:22:45.075Z,97719.88
2018-01-15T23:25:46.480Z,97731.70
2018-01-15T23:28:47.952Z,97739.23
2018-01-15T23:31:49.396Z,97741.67
2018-01-15T23:34:50.925Z,97722.16
2018-01-15T23:37:53.156Z,97727.08
2018-01-15T23:40:54.613Z,97742.23
2018-01-15T23:43:56.072Z,97749.52
2018-01-15T23:46:57.488Z,97772.45
2018-01-15T23:49:58.920Z,97793.86
2018-01-15T23:53:01.086Z,97792.12
2018-01-15T23:56:03.289Z,97799.48
2018-01-15T23:59:04.736Z,97805.72
